createdAt,value
2017-03-23T00:00:01.015Z,0
2017-03-23T00:01:00.693Z,0
2017-03-23T00:02:00.727Z,0
2017-03-23T00:03:01.333Z,0
2017-03-23T00:04:01.386Z,0
2017-03-23T00:05:01.360Z,0
2017-03-23T00:06:01.865Z,0
2017-03-23T00:07:02.744Z,0
2017-03-23T00:08:02.814Z,0
2017-03-23T00:09:02.862Z,0
2017-03-23T00:10:02.856Z,0
2017-03-23T00:11:02.593Z,0
2017-03-23T00:12:02.631Z,0
2017-03-23T00:13:03.117Z,0
2017-03-23T00:14:03.596Z,0
2017-03-23T00:15:04.177Z,0
2017-03-23T00:16:04.387Z,0
2017-03-23T00:17:04.456Z,0
2017-03-23T00:18:04.545Z,0
2017-03-23T00:19:04.589Z,0
2017-03-23T00:20:04.550Z,0
2017-03-23T00:21:04.348Z,0
2017-03-23T00:22:04.337Z,0
2017-03-23T00:23:04.862Z,0
2017-03-23T00:24:05.385Z,0
2017-03-23T00:25:05.656Z,0
2017-03-23T00:26:05.393Z,0
2017-03-23T00:27:06.207Z,0
2017-03-23T00:28:06.085Z,0
2017-03-23T00:29:06.310Z,0
2017-03-23T00:30:06.361Z,0
2017-03-23T00:31:06.049Z,0
2017-03-23T00:32:06.573Z,0
2017-03-23T00:33:07.084Z,0
2017-03-23T00:34:07.127Z,0
2017-03-23T00:35:07.658Z,0
2017-03-23T00:36:08.095Z,0
2017-03-23T00:37:07.872Z,0
2017-03-23T00:38:08.032Z,0
2017-03-23T00:39:08.074Z,0
2017-03-23T00:40:08.076Z,0
2017-03-23T00:41:07.811Z,0
2017-03-23T00:42:08.363Z,0
2017-03-23T00:43:08.377Z,0
2017-03-23T00:44:08.393Z,0
2017-03-23T00:45:08.452Z,0
2017-03-23T00:46:08.422Z,0
2017-03-23T00:47:09.149Z,0
2017-03-23T00:48:09.285Z,4
2017-03-23T00:49:09.444Z,4
2017-03-23T00:50:09.652Z,4
2017-03-23T00:51:09.186Z,4
2017-03-23T00:52:09.181Z,0
2017-03-23T00:53:09.690Z,0
2017-03-23T00:54:09.708Z,0
2017-03-23T00:55:10.545Z,0
2017-03-23T00:56:10.480Z,0
2017-03-23T00:57:10.555Z,0
2017-03-23T00:58:10.556Z,0
2017-03-23T00:59:10.653Z,0
2017-03-23T01:00:10.358Z,0
2017-03-23T01:01:10.417Z,0
2017-03-23T01:02:10.662Z,0
2017-03-23T01:03:10.777Z,0
2017-03-23T01:04:10.776Z,0
2017-03-23T01:05:10.506Z,0
2017-03-23T01:06:10.559Z,0
2017-03-23T01:07:10.531Z,0
2017-03-23T01:08:11.057Z,0
2017-03-23T01:09:11.122Z,0
2017-03-23T01:10:11.160Z,0
2017-03-23T01:11:11.125Z,0
2017-03-23T01:12:11.429Z,0
2017-03-23T01:13:11.438Z,0
2017-03-23T01:14:11.509Z,0
2017-03-23T01:15:11.555Z,0
2017-03-23T01:16:11.274Z,0
2017-03-23T01:17:11.298Z,0
2017-03-23T01:18:11.319Z,0
2017-03-23T01:19:11.370Z,0
2017-03-23T01:20:11.348Z,0
2017-03-23T01:21:11.403Z,0
2017-03-23T01:22:11.505Z,0
2017-03-23T01:23:11.765Z,0
2017-03-23T01:24:11.769Z,0
2017-03-23T01:25:11.836Z,0
2017-03-23T01:26:11.546Z,0
2017-03-23T01:27:11.547Z,0
2017-03-23T01:28:12.053Z,0
2017-03-23T01:29:12.605Z,0
2017-03-23T01:30:12.612Z,0
2017-03-23T01:31:13.110Z,0
2017-03-23T01:32:13.975Z,0
2017-03-23T01:33:14.025Z,0
2017-03-23T01:34:14.044Z,0
2017-03-23T01:35:14.361Z,0
2017-03-23T01:36:13.790Z,0
2017-03-23T01:37:13.840Z,0
2017-03-23T01:38:13.875Z,0
2017-03-23T01:39:13.893Z,0
2017-03-23T01:40:14.392Z,0
2017-03-23T01:41:14.405Z,0
2017-03-23T01:42:15.270Z,0
2017-03-23T01:43:15.438Z,0
2017-03-23T01:44:15.430Z,0
2017-03-23T01:45:15.446Z,0
2017-03-23T01:46:15.198Z,0
2017-03-23T01:47:15.681Z,0
2017-03-23T01:48:16.180Z,0
2017-03-23T01:49:16.709Z,0
2017-03-23T01:50:16.710Z,0
2017-03-23T01:51:17.242Z,0
2017-03-23T01:52:17.440Z,0
2017-03-23T01:53:17.501Z,0
2017-03-23T01:54:17.583Z,0
2017-03-23T01:55:17.787Z,0
2017-03-23T01:56:17.338Z,0
2017-03-23T01:57:17.906Z,0
2017-03-23T01:58:17.922Z,0
2017-03-23T01:59:18.003Z,0
2017-03-23T02:00:17.957Z,0
2017-03-23T02:01:18.868Z,0
2017-03-23T02:02:19.188Z,0
2017-03-23T02:03:18.905Z,0
2017-03-23T02:04:18.894Z,0
2017-03-23T02:05:19.047Z,0
2017-03-23T02:06:18.748Z,0
2017-03-23T02:07:18.785Z,0
2017-03-23T02:08:18.727Z,0
2017-03-23T02:09:19.290Z,0
2017-03-23T02:11:03.664Z,0
2017-03-23T02:11:19.548Z,0
2017-03-23T02:12:19.604Z,0
2017-03-23T02:13:19.641Z,0
2017-03-23T02:15:11.871Z,0
2017-03-23T02:15:28.367Z,0
2017-03-23T02:40:54.525Z,0
2017-03-23T02:41:51.700Z,0
2017-03-23T02:42:48.534Z,0
2017-03-23T02:43:49.000Z,0
2017-03-23T02:44:49.477Z,0
2017-03-23T02:45:49.966Z,0
2017-03-23T02:46:50.413Z,0
2017-03-23T02:47:50.878Z,0
2017-03-23T02:48:51.344Z,0
2017-03-23T02:49:51.818Z,0
2017-03-23T02:51:16.002Z,0
2017-03-23T02:51:57.402Z,0
2017-03-23T02:52:58.012Z,0
2017-03-23T02:53:58.444Z,0
2017-03-23T02:55:20.029Z,0
2017-03-23T02:56:00.659Z,0
2017-03-23T02:57:01.063Z,0
2017-03-23T02:58:01.462Z,0
2017-03-23T02:59:01.859Z,0
2017-03-23T03:00:02.243Z,0
2017-03-23T03:01:02.642Z,0
2017-03-23T03:02:03.460Z,0
2017-03-23T03:03:03.506Z,0
2017-03-23T03:04:03.202Z,0
2017-03-23T03:05:03.593Z,0
2017-03-23T03:06:03.980Z,0
2017-03-23T03:07:04.356Z,0
2017-03-23T03:08:49.213Z,0
2017-03-23T03:09:30.784Z,0
2017-03-23T03:24:06.597Z,0
2017-03-23T03:25:03.615Z,0
2017-03-23T03:26:03.600Z,0
2017-03-23T03:27:03.975Z,0
2017-03-23T03:28:04.363Z,0
2017-03-23T03:29:04.740Z,0
2017-03-23T03:30:05.123Z,0
2017-03-23T03:31:05.511Z,0
2017-03-23T03:32:05.892Z,0
2017-03-23T03:33:06.275Z,0
2017-03-23T03:34:06.681Z,0
2017-03-23T03:35:07.228Z,0
2017-03-23T03:36:07.098Z,0
2017-03-23T03:37:07.482Z,0
2017-03-23T03:38:08.077Z,0
2017-03-23T03:39:08.472Z,0
2017-03-23T03:40:09.059Z,0
2017-03-23T03:41:08.881Z,0
2017-03-23T03:42:09.282Z,0
2017-03-23T03:43:09.682Z,0
2017-03-23T03:44:10.085Z,0
2017-03-23T03:45:10.570Z,0
2017-03-23T03:46:10.970Z,0
2017-03-23T03:47:11.374Z,0
2017-03-23T03:48:11.758Z,0
2017-03-23T03:49:12.153Z,0
2017-03-23T03:50:12.708Z,0
2017-03-23T03:51:12.555Z,0
2017-03-23T03:52:12.953Z,0
2017-03-23T03:53:13.355Z,0
2017-03-23T03:54:13.751Z,0
2017-03-23T03:55:14.297Z,0
2017-03-23T03:56:14.166Z,0
2017-03-23T03:57:14.568Z,0
2017-03-23T03:58:14.954Z,0
2017-03-23T03:59:15.350Z,0
2017-03-23T04:00:15.849Z,0
2017-03-23T04:01:16.226Z,0
2017-03-23T04:02:16.642Z,0
2017-03-23T04:03:17.038Z,0
2017-03-23T04:04:17.443Z,0
2017-03-23T04:05:18.025Z,0
2017-03-23T04:06:17.867Z,0
2017-03-23T04:07:18.260Z,0
2017-03-23T04:08:18.647Z,0
2017-03-23T04:09:19.041Z,0
2017-03-23T04:10:19.587Z,0
2017-03-23T04:11:19.446Z,0
2017-03-23T04:12:19.850Z,0
2017-03-23T04:13:20.248Z,0
2017-03-23T04:14:20.636Z,0
2017-03-23T04:15:21.181Z,0
2017-03-23T04:16:21.039Z,0
2017-03-23T04:17:21.432Z,0
2017-03-23T04:18:21.836Z,0
2017-03-23T04:19:22.229Z,0
2017-03-23T04:20:22.921Z,0
2017-03-23T04:21:22.626Z,0
2017-03-23T04:22:23.016Z,0
2017-03-23T04:23:23.416Z,0
2017-03-23T04:24:23.820Z,0
2017-03-23T04:25:24.371Z,0
2017-03-23T04:26:24.237Z,0
2017-03-23T04:27:24.628Z,0
2017-03-23T04:28:25.025Z,0
2017-03-23T04:29:25.417Z,0
2017-03-23T04:30:25.930Z,0
2017-03-23T04:31:25.842Z,0
2017-03-23T04:32:26.237Z,0
2017-03-23T04:33:26.633Z,0
2017-03-23T04:34:27.042Z,0
2017-03-23T04:35:27.588Z,0
2017-03-23T04:36:27.455Z,0
2017-03-23T04:37:27.833Z,0
2017-03-23T04:38:28.239Z,4
2017-03-23T04:39:28.642Z,4
2017-03-23T04:40:29.047Z,0
2017-03-23T04:41:29.450Z,0
2017-03-23T04:42:29.844Z,4
2017-03-23T04:43:30.242Z,4
2017-03-23T04:44:30.641Z,4
2017-03-23T04:45:31.049Z,4
2017-03-23T04:46:31.443Z,8
2017-03-23T04:47:31.845Z,4
2017-03-23T04:48:32.244Z,8
2017-03-23T04:49:32.637Z,8
2017-03-23T04:50:32.999Z,8
2017-03-23T04:51:33.398Z,8
2017-03-23T04:52:33.770Z,12
2017-03-23T04:53:34.171Z,8
2017-03-23T04:54:34.600Z,12
2017-03-23T04:55:34.994Z,16
2017-03-23T04:56:35.401Z,12
2017-03-23T04:57:35.801Z,16
2017-03-23T04:58:36.206Z,16
2017-03-23T04:59:36.592Z,16
2017-03-23T05:00:37.054Z,16
2017-03-23T05:01:37.512Z,16
2017-03-23T05:02:37.981Z,20
2017-03-23T05:03:38.434Z,20
2017-03-23T05:04:38.901Z,24
2017-03-23T05:05:39.634Z,24
2017-03-23T05:06:39.366Z,32
2017-03-23T05:07:39.839Z,32
2017-03-23T05:08:40.306Z,36
2017-03-23T05:09:40.757Z,32
2017-03-23T05:10:41.228Z,40
2017-03-23T05:11:41.694Z,40
2017-03-23T05:12:42.146Z,48
2017-03-23T05:13:42.616Z,52
2017-03-23T05:14:43.085Z,52
2017-03-23T05:15:43.810Z,56
2017-03-23T05:16:43.550Z,60
2017-03-23T05:17:44.001Z,64
2017-03-23T05:18:44.457Z,68
2017-03-23T05:19:44.914Z,72
2017-03-23T05:20:45.355Z,80
2017-03-23T05:21:45.831Z,88
2017-03-23T05:22:46.274Z,92
2017-03-23T05:23:46.744Z,96
2017-03-23T05:24:47.209Z,100
2017-03-23T05:25:47.674Z,100
2017-03-23T05:26:48.157Z,108
2017-03-23T05:27:48.634Z,112
2017-03-23T05:28:49.087Z,116
2017-03-23T05:29:49.546Z,120
2017-03-23T05:30:50.028Z,124
2017-03-23T05:31:50.493Z,128
2017-03-23T05:32:50.947Z,136
2017-03-23T05:33:51.429Z,140
2017-03-23T05:34:51.905Z,148
2017-03-23T05:35:52.630Z,156
2017-03-23T05:36:52.395Z,168
2017-03-23T05:37:52.860Z,176
2017-03-23T05:38:53.312Z,192
2017-03-23T05:39:53.774Z,208
2017-03-23T05:40:54.237Z,228
2017-03-23T05:41:54.709Z,256
2017-03-23T05:42:55.242Z,276
2017-03-23T05:43:55.698Z,300
2017-03-23T05:44:56.163Z,320
2017-03-23T05:45:56.781Z,328
2017-03-23T05:46:56.647Z,344
2017-03-23T05:47:57.119Z,356
2017-03-23T05:48:57.566Z,368
2017-03-23T05:49:58.046Z,380
2017-03-23T05:50:58.495Z,388
2017-03-23T05:51:58.953Z,396
2017-03-23T05:52:59.388Z,408
2017-03-23T05:53:59.855Z,424
2017-03-23T05:55:00.302Z,436
2017-03-23T05:56:00.750Z,448
2017-03-23T05:57:01.177Z,464
2017-03-23T05:58:01.648Z,480
2017-03-23T05:59:02.102Z,504
2017-03-23T06:00:02.565Z,528
2017-03-23T06:01:03.047Z,548
2017-03-23T06:02:03.502Z,560
2017-03-23T06:03:03.940Z,560
2017-03-23T06:04:04.406Z,560
2017-03-23T06:05:04.869Z,564
2017-03-23T06:06:05.416Z,560
2017-03-23T06:07:05.327Z,556
2017-03-23T06:08:05.790Z,560
2017-03-23T06:09:06.247Z,572
2017-03-23T06:10:06.725Z,584
2017-03-23T06:11:07.457Z,612
2017-03-23T06:12:07.211Z,644
2017-03-23T06:13:07.665Z,664
2017-03-23T06:14:08.142Z,688
2017-03-23T06:15:08.588Z,688
2017-03-23T06:16:09.072Z,688
2017-03-23T06:17:09.520Z,684
2017-03-23T06:18:09.960Z,684
2017-03-23T06:19:10.441Z,692
2017-03-23T06:20:10.894Z,700
2017-03-23T06:21:11.467Z,708
2017-03-23T06:22:11.367Z,708
2017-03-23T06:23:11.830Z,704
2017-03-23T06:24:12.282Z,684
2017-03-23T06:25:12.759Z,664
2017-03-23T06:26:13.533Z,636
2017-03-23T06:27:13.235Z,612
2017-03-23T06:28:13.701Z,588
2017-03-23T06:29:14.152Z,564
2017-03-23T06:30:14.622Z,564
2017-03-23T06:31:15.065Z,568
2017-03-23T06:32:15.523Z,576
2017-03-23T06:33:15.977Z,584
2017-03-23T06:34:16.427Z,580
2017-03-23T06:35:16.882Z,576
2017-03-23T06:36:17.444Z,564
2017-03-23T06:37:17.369Z,548
2017-03-23T06:38:17.843Z,540
2017-03-23T06:39:18.318Z,540
2017-03-23T06:40:18.790Z,552
2017-03-23T06:41:19.386Z,564
2017-03-23T06:42:19.269Z,580
2017-03-23T06:43:19.702Z,596
2017-03-23T06:44:20.166Z,616
2017-03-23T06:45:20.642Z,640
2017-03-23T06:46:21.225Z,676
2017-03-23T06:47:21.113Z,724
2017-03-23T06:48:21.567Z,780
2017-03-23T06:49:21.997Z,828
2017-03-23T06:50:22.470Z,864
2017-03-23T06:51:22.925Z,892
2017-03-23T06:52:23.382Z,916
2017-03-23T06:53:23.819Z,936
2017-03-23T06:54:24.293Z,952
2017-03-23T06:55:24.758Z,972
2017-03-23T06:56:25.335Z,996
2017-03-23T06:57:25.224Z,1028
2017-03-23T06:58:25.668Z,1060
2017-03-23T06:59:26.113Z,1128
2017-03-23T07:00:26.553Z,1196
2017-03-23T07:01:27.026Z,1276
2017-03-23T07:02:27.515Z,1360
2017-03-23T07:03:27.938Z,1432
2017-03-23T07:04:28.420Z,1484
2017-03-23T07:05:28.914Z,1508
2017-03-23T07:06:29.778Z,1532
2017-03-23T07:07:29.385Z,1548
2017-03-23T07:08:29.829Z,1608
2017-03-23T07:09:30.294Z,1648
2017-03-23T07:10:30.780Z,1732
2017-03-23T07:11:31.224Z,1848
2017-03-23T07:12:32.190Z,2012
2017-03-23T07:13:32.234Z,2216
2017-03-23T07:14:32.229Z,2448
2017-03-23T07:15:32.293Z,2660
2017-03-23T07:16:32.291Z,2832
2017-03-23T07:17:32.345Z,2884
2017-03-23T07:18:32.360Z,3000
2017-03-23T07:19:32.380Z,3068
2017-03-23T07:20:32.417Z,3008
2017-03-23T07:21:32.578Z,2932
2017-03-23T07:22:32.463Z,2908
2017-03-23T07:23:32.488Z,2872
2017-03-23T07:24:32.519Z,2800
2017-03-23T07:25:32.540Z,2704
2017-03-23T07:26:32.588Z,2648
2017-03-23T07:27:32.617Z,2632
2017-03-23T07:28:32.627Z,2628
2017-03-23T07:29:32.674Z,2600
2017-03-23T07:30:32.688Z,2588
2017-03-23T07:31:32.734Z,2576
2017-03-23T07:32:32.736Z,2556
2017-03-23T07:33:32.791Z,2536
2017-03-23T07:34:32.811Z,2520
2017-03-23T07:35:32.836Z,2504
2017-03-23T07:36:32.862Z,2452
2017-03-23T07:37:32.872Z,2372
2017-03-23T07:38:32.898Z,2276
2017-03-23T07:39:32.939Z,2160
2017-03-23T07:40:32.959Z,2028
2017-03-23T07:41:32.995Z,1892
2017-03-23T07:42:33.019Z,1760
2017-03-23T07:43:33.055Z,1636
2017-03-23T07:44:33.079Z,1544
2017-03-23T07:45:33.087Z,1484
2017-03-23T07:46:33.138Z,1440
2017-03-23T07:47:33.165Z,1416
2017-03-23T07:48:33.184Z,1420
2017-03-23T07:49:33.208Z,1436
2017-03-23T07:50:33.243Z,1476
2017-03-23T07:51:33.256Z,1532
2017-03-23T07:52:33.279Z,1600
2017-03-23T07:53:33.336Z,1676
2017-03-23T07:54:33.349Z,1752
2017-03-23T07:55:33.385Z,1824
2017-03-23T07:56:33.413Z,1896
2017-03-23T07:57:33.525Z,1968
2017-03-23T07:58:33.489Z,2032
2017-03-23T07:59:33.481Z,2116
2017-03-23T08:00:33.533Z,2220
2017-03-23T08:01:33.535Z,2328
2017-03-23T08:02:33.681Z,2428
2017-03-23T08:03:33.574Z,2500
2017-03-23T08:04:33.639Z,2536
2017-03-23T08:05:33.639Z,2544
2017-03-23T08:06:33.657Z,2492
2017-03-23T08:07:33.850Z,2440
2017-03-23T08:08:33.743Z,2408
2017-03-23T08:09:33.817Z,2348
2017-03-23T08:10:33.803Z,2308
2017-03-23T08:11:33.811Z,2316
2017-03-23T08:12:33.992Z,2340
2017-03-23T08:13:33.856Z,2360
2017-03-23T08:14:33.890Z,2392
2017-03-23T08:15:33.940Z,2444
2017-03-23T08:16:33.962Z,2500
2017-03-23T08:17:33.976Z,2576
2017-03-23T08:18:34.022Z,2672
2017-03-23T08:19:34.042Z,2768
2017-03-23T08:20:34.047Z,2828
2017-03-23T08:21:34.105Z,2852
2017-03-23T08:22:34.167Z,2884
2017-03-23T08:23:34.137Z,2920
2017-03-23T08:24:34.213Z,2932
2017-03-23T08:25:34.212Z,2952
2017-03-23T08:26:34.238Z,2980
2017-03-23T08:27:34.282Z,3020
2017-03-23T08:28:34.314Z,3100
2017-03-23T08:29:34.336Z,3216
2017-03-23T08:30:34.346Z,3364
2017-03-23T08:31:34.386Z,3552
2017-03-23T08:32:34.396Z,3752
2017-03-23T08:33:34.449Z,3988
2017-03-23T08:34:34.466Z,4208
2017-03-23T08:35:34.496Z,4388
2017-03-23T08:36:34.510Z,4528
2017-03-23T08:37:34.519Z,4608
2017-03-23T08:38:34.561Z,4704
2017-03-23T08:39:34.592Z,4820
2017-03-23T08:40:34.637Z,4920
2017-03-23T08:41:34.646Z,4900
2017-03-23T08:42:34.675Z,4748
2017-03-23T08:43:34.728Z,4536
2017-03-23T08:44:34.733Z,4320
2017-03-23T08:45:34.776Z,4092
2017-03-23T08:46:34.789Z,3936
2017-03-23T08:47:34.850Z,3860
2017-03-23T08:48:34.951Z,3840
2017-03-23T08:49:34.895Z,3856
2017-03-23T08:50:34.933Z,3856
2017-03-23T08:51:34.940Z,3764
2017-03-23T08:52:34.957Z,3580
2017-03-23T08:53:35.089Z,3456
2017-03-23T08:54:35.035Z,3392
2017-03-23T08:55:35.039Z,3404
2017-03-23T08:56:35.091Z,3568
2017-03-23T08:57:35.119Z,3836
2017-03-23T08:58:35.289Z,4208
2017-03-23T08:59:35.185Z,4544
2017-03-23T09:00:35.211Z,4744
2017-03-23T09:01:35.241Z,4756
2017-03-23T09:02:35.263Z,4592
2017-03-23T09:03:35.541Z,4404
2017-03-23T09:04:35.328Z,4292
2017-03-23T09:05:35.391Z,4200
2017-03-23T09:06:35.356Z,4108
2017-03-23T09:07:35.400Z,4040
2017-03-23T09:08:35.440Z,3992
2017-03-23T09:09:35.461Z,4028
2017-03-23T09:10:35.504Z,4040
2017-03-23T09:11:35.520Z,3952
2017-03-23T09:12:35.534Z,3808
2017-03-23T09:13:35.568Z,3736
2017-03-23T09:14:35.619Z,3752
2017-03-23T09:15:35.630Z,3760
2017-03-23T09:16:35.663Z,3760
2017-03-23T09:17:35.712Z,3780
2017-03-23T09:18:35.700Z,3784
2017-03-23T09:19:35.750Z,3708
2017-03-23T09:20:35.754Z,3576
2017-03-23T09:21:35.798Z,3460
2017-03-23T09:22:35.850Z,3392
2017-03-23T09:23:35.854Z,3368
2017-03-23T09:24:35.889Z,3452
2017-03-23T09:25:35.935Z,3540
2017-03-23T09:26:35.957Z,3620
2017-03-23T09:27:35.938Z,3668
2017-03-23T09:28:35.992Z,3688
2017-03-23T09:29:36.025Z,3648
2017-03-23T09:30:36.075Z,3492
2017-03-23T09:31:36.102Z,3388
2017-03-23T09:32:36.089Z,3312
2017-03-23T09:33:36.135Z,3260
2017-03-23T09:34:36.193Z,3124
2017-03-23T09:35:36.204Z,3008
2017-03-23T09:36:36.245Z,3040
2017-03-23T09:37:36.269Z,2960
2017-03-23T09:38:36.289Z,2848
2017-03-23T09:39:36.436Z,2844
2017-03-23T09:40:36.356Z,2824
2017-03-23T09:41:36.377Z,2804
2017-03-23T09:42:36.427Z,2808
2017-03-23T09:43:36.457Z,2836
2017-03-23T09:44:36.724Z,2832
2017-03-23T09:45:36.496Z,2872
2017-03-23T09:46:36.541Z,2936
2017-03-23T09:47:36.548Z,3016
2017-03-23T09:48:36.600Z,3060
2017-03-23T09:49:36.710Z,3072
2017-03-23T09:50:36.649Z,3064
2017-03-23T09:51:36.673Z,3052
2017-03-23T09:52:36.709Z,3012
2017-03-23T09:53:36.732Z,2976
2017-03-23T09:54:36.851Z,3044
2017-03-23T09:55:36.761Z,3168
2017-03-23T09:56:36.809Z,3288
2017-03-23T09:57:36.857Z,3284
2017-03-23T09:58:36.878Z,3196
2017-03-23T09:59:36.901Z,3188
2017-03-23T10:00:36.924Z,3208
2017-03-23T10:01:36.950Z,3288
2017-03-23T10:02:37.007Z,3392
2017-03-23T10:03:37.022Z,3500
2017-03-23T10:04:37.061Z,3608
2017-03-23T10:05:37.067Z,3656
2017-03-23T10:06:37.105Z,3604
2017-03-23T10:07:37.138Z,3520
2017-03-23T10:08:37.159Z,3432
2017-03-23T10:09:37.196Z,3364
2017-03-23T10:10:37.232Z,3228
2017-03-23T10:11:37.261Z,3104
2017-03-23T10:12:37.272Z,3020
2017-03-23T10:13:37.297Z,2964
2017-03-23T10:14:37.338Z,2908
2017-03-23T10:15:37.357Z,2880
2017-03-23T10:16:37.391Z,2868
2017-03-23T10:17:37.422Z,2892
2017-03-23T10:18:37.454Z,2944
2017-03-23T10:19:37.469Z,2964
2017-03-23T10:20:37.507Z,2932
2017-03-23T10:21:37.546Z,2848
2017-03-23T10:22:37.548Z,2752
2017-03-23T10:23:37.595Z,2692
2017-03-23T10:24:37.636Z,2672
2017-03-23T10:25:38.023Z,2676
2017-03-23T10:26:37.703Z,2708
2017-03-23T10:27:37.718Z,2744
2017-03-23T10:28:37.744Z,2752
2017-03-23T10:29:37.775Z,2756
2017-03-23T10:30:37.905Z,2720
2017-03-23T10:31:37.837Z,2652
2017-03-23T10:32:37.860Z,2580
2017-03-23T10:33:37.903Z,2608
2017-03-23T10:34:37.903Z,2616
2017-03-23T10:35:38.053Z,2600
2017-03-23T10:36:37.987Z,2616
2017-03-23T10:37:38.016Z,2728
2017-03-23T10:38:38.037Z,2852
2017-03-23T10:39:38.238Z,2992
2017-03-23T10:40:38.209Z,3088
2017-03-23T10:41:38.106Z,3208
2017-03-23T10:42:38.159Z,3312
2017-03-23T10:43:38.167Z,3452
2017-03-23T10:44:38.207Z,3576
2017-03-23T10:45:38.247Z,3656
2017-03-23T10:46:38.269Z,3720
2017-03-23T10:47:38.306Z,3820
2017-03-23T10:48:38.300Z,3936
2017-03-23T10:49:38.362Z,4068
2017-03-23T10:50:38.383Z,4144
2017-03-23T10:51:38.417Z,4264
2017-03-23T10:52:38.457Z,4408
2017-03-23T10:53:38.460Z,4564
2017-03-23T10:54:38.514Z,4680
2017-03-23T10:55:38.503Z,4752
2017-03-23T10:56:38.560Z,4756
2017-03-23T10:57:38.600Z,4720
2017-03-23T10:58:38.630Z,4640
2017-03-23T10:59:38.661Z,4664
2017-03-23T11:00:38.677Z,4724
2017-03-23T11:01:38.712Z,4720
2017-03-23T11:02:38.743Z,4740
2017-03-23T11:03:38.769Z,4776
2017-03-23T11:04:38.789Z,4732
2017-03-23T11:05:39.055Z,4644
2017-03-23T11:06:38.867Z,4676
2017-03-23T11:07:38.871Z,4732
2017-03-23T11:08:38.923Z,4748
2017-03-23T11:09:38.958Z,4636
2017-03-23T11:10:38.984Z,4544
2017-03-23T11:11:39.059Z,4308
2017-03-23T11:12:39.032Z,4480
2017-03-23T11:13:39.077Z,4372
2017-03-23T11:14:39.183Z,4224
2017-03-23T11:15:39.131Z,4176
2017-03-23T11:16:39.138Z,3996
2017-03-23T11:17:39.162Z,3820
2017-03-23T11:18:39.217Z,3616
2017-03-23T11:19:39.498Z,3448
2017-03-23T11:20:39.281Z,3388
2017-03-23T11:21:39.308Z,3384
2017-03-23T11:22:39.334Z,3416
2017-03-23T11:23:39.356Z,3500
2017-03-23T11:24:39.529Z,3612
2017-03-23T11:25:39.429Z,3636
2017-03-23T11:26:39.455Z,3604
2017-03-23T11:27:39.481Z,3584
2017-03-23T11:28:39.499Z,3556
2017-03-23T11:29:39.634Z,3540
2017-03-23T11:30:39.583Z,3492
2017-03-23T11:31:39.603Z,3392
2017-03-23T11:32:39.600Z,3236
2017-03-23T11:33:39.654Z,3100
2017-03-23T11:34:39.688Z,2944
2017-03-23T11:35:39.721Z,2804
2017-03-23T11:36:39.754Z,2656
2017-03-23T11:37:39.773Z,2536
2017-03-23T11:38:39.786Z,2544
2017-03-23T11:39:39.818Z,2632
2017-03-23T11:40:39.875Z,2764
2017-03-23T11:41:39.881Z,2804
2017-03-23T11:42:39.934Z,2788
2017-03-23T11:43:39.954Z,2796
2017-03-23T11:44:39.989Z,2784
2017-03-23T11:45:40.004Z,2748
2017-03-23T11:46:40.031Z,2728
2017-03-23T11:47:40.072Z,2828
2017-03-23T11:48:40.105Z,2948
2017-03-23T11:49:40.135Z,2976
2017-03-23T11:50:40.140Z,2968
2017-03-23T11:51:40.228Z,2988
2017-03-23T11:52:40.188Z,3012
2017-03-23T11:53:40.299Z,3032
2017-03-23T11:54:40.284Z,3068
2017-03-23T11:55:40.310Z,3116
2017-03-23T11:56:40.304Z,3148
2017-03-23T11:57:40.372Z,3152
2017-03-23T11:58:40.389Z,3188
2017-03-23T11:59:40.401Z,3280
2017-03-23T12:00:40.438Z,3424
2017-03-23T12:01:40.485Z,3564
2017-03-23T12:02:40.507Z,3652
2017-03-23T12:03:40.554Z,3688
2017-03-23T12:04:40.572Z,3680
2017-03-23T12:05:40.603Z,3648
2017-03-23T12:06:40.621Z,3648
2017-03-23T12:07:40.631Z,3692
2017-03-23T12:08:40.687Z,3768
2017-03-23T12:09:40.709Z,3836
2017-03-23T12:10:40.826Z,3900
2017-03-23T12:11:40.769Z,3960
2017-03-23T12:12:40.801Z,4020
2017-03-23T12:13:40.802Z,4104
2017-03-23T12:14:40.876Z,4220
2017-03-23T12:15:41.212Z,4360
2017-03-23T12:16:40.925Z,4512
2017-03-23T12:17:40.940Z,4644
2017-03-23T12:18:40.980Z,4744
2017-03-23T12:19:41.017Z,4796
2017-03-23T12:20:41.129Z,4856
2017-03-23T12:21:41.067Z,4916
2017-03-23T12:22:41.070Z,4964
2017-03-23T12:23:41.153Z,5024
2017-03-23T12:24:41.154Z,5148
2017-03-23T12:25:41.194Z,5300
2017-03-23T12:26:41.190Z,5432
2017-03-23T12:27:41.231Z,5580
2017-03-23T12:28:41.275Z,5752
2017-03-23T12:29:41.283Z,5940
2017-03-23T12:30:41.337Z,6128
2017-03-23T12:31:41.360Z,6272
2017-03-23T12:32:41.401Z,6336
2017-03-23T12:33:41.423Z,6400
2017-03-23T12:34:41.480Z,6596
2017-03-23T12:35:41.478Z,6820
2017-03-23T12:36:41.522Z,7008
2017-03-23T12:37:41.540Z,7120
2017-03-23T12:38:41.568Z,7060
2017-03-23T12:39:41.608Z,7008
2017-03-23T12:40:41.636Z,7032
2017-03-23T12:41:41.671Z,7120
2017-03-23T12:42:41.682Z,7108
2017-03-23T12:43:41.741Z,7212
2017-03-23T12:44:41.770Z,7128
2017-03-23T12:45:41.817Z,7128
2017-03-23T12:46:41.819Z,7020
2017-03-23T12:47:41.830Z,6956
2017-03-23T12:48:41.887Z,7028
2017-03-23T12:49:41.892Z,6920
2017-03-23T12:50:41.902Z,7012
2017-03-23T12:51:41.968Z,6844
2017-03-23T12:52:41.969Z,6760
2017-03-23T12:53:42.029Z,6972
2017-03-23T12:54:42.054Z,7020
2017-03-23T12:55:42.064Z,7204
2017-03-23T12:56:42.271Z,7064
2017-03-23T12:57:42.131Z,7012
2017-03-23T12:58:42.178Z,6728
2017-03-23T12:59:42.181Z,6616
2017-03-23T13:00:42.216Z,6784
2017-03-23T13:01:42.426Z,7076
2017-03-23T13:02:42.288Z,7140
2017-03-23T13:03:42.299Z,7080
2017-03-23T13:04:42.364Z,6884
2017-03-23T13:05:42.370Z,6564
2017-03-23T13:06:42.569Z,6240
2017-03-23T13:07:42.457Z,5944
2017-03-23T13:08:42.480Z,5480
2017-03-23T13:09:42.486Z,5792
2017-03-23T13:10:42.533Z,5724
2017-03-23T13:11:42.934Z,5560
2017-03-23T13:12:42.589Z,5748
2017-03-23T13:13:42.629Z,5836
2017-03-23T13:14:42.653Z,5880
2017-03-23T13:15:42.668Z,6036
2017-03-23T13:16:42.733Z,6364
2017-03-23T13:17:42.732Z,6608
2017-03-23T13:18:42.788Z,7000
2017-03-23T13:19:42.812Z,7276
2017-03-23T13:20:42.840Z,7108
2017-03-23T13:21:42.869Z,7048
2017-03-23T13:22:42.906Z,7192
2017-03-23T13:23:42.934Z,7256
2017-03-23T13:24:42.966Z,7300
2017-03-23T13:25:42.972Z,7488
2017-03-23T13:26:43.014Z,7720
2017-03-23T13:27:43.113Z,7824
2017-03-23T13:28:43.075Z,7940
2017-03-23T13:29:43.112Z,7948
2017-03-23T13:30:43.140Z,7868
2017-03-23T13:31:43.184Z,7860
2017-03-23T13:32:43.196Z,7796
2017-03-23T13:33:43.284Z,7896
2017-03-23T13:34:43.264Z,7812
2017-03-23T13:35:43.315Z,7632
2017-03-23T13:36:43.333Z,7364
2017-03-23T13:37:43.342Z,7056
2017-03-23T13:38:43.382Z,6940
2017-03-23T13:39:43.409Z,6536
2017-03-23T13:40:43.443Z,6256
2017-03-23T13:41:43.482Z,5684
2017-03-23T13:42:43.663Z,5124
2017-03-23T13:43:43.542Z,4992
2017-03-23T13:44:43.571Z,4416
2017-03-23T13:45:43.532Z,4904
2017-03-23T13:46:43.608Z,4504
2017-03-23T13:47:43.798Z,4208
2017-03-23T13:48:43.696Z,4424
2017-03-23T13:49:43.713Z,4156
2017-03-23T13:50:43.726Z,3880
2017-03-23T13:51:43.754Z,3548
2017-03-23T13:52:43.957Z,2760
2017-03-23T13:53:43.846Z,2520
2017-03-23T13:54:43.850Z,2524
2017-03-23T13:55:43.893Z,2348
2017-03-23T13:56:43.921Z,2320
2017-03-23T13:57:44.286Z,2084
2017-03-23T13:58:43.995Z,2368
2017-03-23T13:59:44.038Z,2420
2017-03-23T14:00:44.040Z,2120
2017-03-23T14:01:44.077Z,2108
2017-03-23T14:02:44.079Z,2132
2017-03-23T14:03:44.137Z,2272
2017-03-23T14:04:44.161Z,2248
2017-03-23T14:05:44.200Z,2120
2017-03-23T14:06:44.207Z,1988
2017-03-23T14:07:44.259Z,1756
2017-03-23T14:08:44.295Z,1592
2017-03-23T14:09:44.302Z,1724
2017-03-23T14:10:44.327Z,1488
2017-03-23T14:11:44.380Z,1220
2017-03-23T14:12:44.412Z,1180
2017-03-23T14:13:44.431Z,1352
2017-03-23T14:14:44.471Z,1364
2017-03-23T14:15:44.499Z,1396
2017-03-23T14:16:44.507Z,1356
2017-03-23T14:17:44.539Z,1252
2017-03-23T14:18:44.585Z,1180
2017-03-23T14:19:44.617Z,1116
2017-03-23T14:20:44.654Z,1140
2017-03-23T14:21:44.673Z,1200
2017-03-23T14:22:44.704Z,1216
2017-03-23T14:23:44.730Z,1176
2017-03-23T14:24:44.760Z,1124
2017-03-23T14:25:44.853Z,1052
2017-03-23T14:26:44.771Z,972
2017-03-23T14:27:44.886Z,904
2017-03-23T14:28:44.870Z,804
2017-03-23T14:29:44.904Z,760